Terminal Aerodrome Forecast
Issued by NWS

Home | Current Version | Previous Version | Text Only | Print | Product List | Glossary On
Versions: 1 2 3 4 5 6 7 8 9 10 11 12 13 14
000
FTUS42 KMLB 250540
TAFLEE
TAF
KLEE 250540Z 2506/2606 18003KT P6SM SCT060 BKN100
     FM251400 20005KT P6SM SCT025 SCT080 SCT250
     FM252000 25008KT P6SM VCTS SCT040CB SCT060 BKN250
     FM260200 VRB04KT P6SM VCSH SCT025 BKN040 OVC060=

USA.gov is the U.S. government's official web portal to all federal, state and local government web resources and services.